createdAt,value
2022-11-18T00:01:33.947Z,11.18
2022-11-18T00:04:03.449Z,11.29
2022-11-18T00:06:33.157Z,11.18
2022-11-18T00:09:03.476Z,11.07
2022-11-18T00:11:51.419Z,11.03
2022-11-18T00:14:23.488Z,10.97
2022-11-18T00:16:57.285Z,10.88
2022-11-18T00:19:26.926Z,11.04
2022-11-18T00:21:54.830Z,10.77
2022-11-18T00:24:23.578Z,10.85
2022-11-18T00:26:53.042Z,10.94
2022-11-18T00:29:21.353Z,10.88
2022-11-18T00:31:49.823Z,11.00
2022-11-18T00:34:19.594Z,11.00
2022-11-18T00:36:48.881Z,11.07
2022-11-18T00:39:18.796Z,10.97
2022-11-18T00:42:05.313Z,11.00
2022-11-18T00:44:34.908Z,11.18
2022-11-18T00:47:02.708Z,11.22
2022-11-18T00:49:33.087Z,11.13
2022-11-18T00:52:01.157Z,11.15
2022-11-18T00:54:28.931Z,11.16
2022-11-18T00:56:56.721Z,11.12
2022-11-18T00:59:24.462Z,11.02
2022-11-18T01:01:53.692Z,11.31
2022-11-18T01:04:21.644Z,11.32
2022-11-18T01:06:49.540Z,11.35
2022-11-18T01:09:17.638Z,11.38
2022-11-18T01:12:03.201Z,11.37
2022-11-18T01:14:31.126Z,11.47
2022-11-18T01:17:00.344Z,11.43
2022-11-18T01:19:28.300Z,11.59
2022-11-18T01:21:56.855Z,11.42
2022-11-18T01:24:24.666Z,11.60
2022-11-18T01:26:52.406Z,11.41
2022-11-18T01:29:20.383Z,11.53
2022-11-18T01:32:09.244Z,11.41
2022-11-18T01:34:37.559Z,11.73
2022-11-18T01:37:05.321Z,11.17
2022-11-18T01:39:33.250Z,11.33
2022-11-18T01:42:01.135Z,11.80
2022-11-18T01:44:57.968Z,11.28
2022-11-18T01:47:29.187Z,11.35
2022-11-18T01:50:00.307Z,11.70
2022-11-18T01:52:28.933Z,11.58
2022-11-18T01:55:00.438Z,11.34
2022-11-18T01:57:30.725Z,11.52
2022-11-18T02:00:00.477Z,11.57
2022-11-18T02:02:28.660Z,11.49
2022-11-18T02:04:59.848Z,11.42
2022-11-18T02:07:28.195Z,11.45
2022-11-18T02:09:58.989Z,11.54
2022-11-18T02:12:26.810Z,11.50
2022-11-18T02:14:54.751Z,11.52
2022-11-18T02:17:34.803Z,11.54
2022-11-18T02:20:32.896Z,11.66
2022-11-18T02:23:28.885Z,11.57
2022-11-18T02:26:12.384Z,11.67
2022-11-18T02:28:53.784Z,11.94
2022-11-18T02:31:28.898Z,11.70
2022-11-18T02:34:04.240Z,11.84
2022-11-18T02:36:41.648Z,11.56
2022-11-18T02:39:13.463Z,11.66
2022-11-18T02:41:45.756Z,11.72
2022-11-18T02:44:16.535Z,11.77
2022-11-18T02:46:48.806Z,11.59
2022-11-18T02:49:21.346Z,11.74
2022-11-18T02:51:51.478Z,11.65
2022-11-18T02:54:21.995Z,11.36
2022-11-18T02:56:52.583Z,11.48
2022-11-18T02:59:22.459Z,11.43
2022-11-18T03:01:50.352Z,11.50
2022-11-18T03:04:19.201Z,11.70
2022-11-18T03:06:55.069Z,11.92
2022-11-18T03:09:28.204Z,11.64
2022-11-18T03:12:03.571Z,11.77
2022-11-18T03:14:41.425Z,11.39
2022-11-18T03:17:12.975Z,11.70
2022-11-18T03:19:56.111Z,11.58
2022-11-18T03:22:29.612Z,11.56
2022-11-18T03:25:05.838Z,11.90
2022-11-18T03:27:38.032Z,11.44
2022-11-18T03:30:13.341Z,11.69
2022-11-18T03:32:45.460Z,11.51
2022-11-18T03:35:18.788Z,11.70
2022-11-18T03:37:50.458Z,11.45
2022-11-18T03:40:21.544Z,11.58
2022-11-18T03:42:53.014Z,11.52
2022-11-18T03:45:25.256Z,11.64
2022-11-18T03:47:56.765Z,11.25
2022-11-18T03:50:28.696Z,11.53
2022-11-18T03:52:57.680Z,11.53
2022-11-18T03:55:30.545Z,11.48
2022-11-18T03:58:06.544Z,11.56
2022-11-18T04:00:40.532Z,11.32
2022-11-18T04:03:08.379Z,11.64
2022-11-18T04:05:39.255Z,11.79
2022-11-18T04:08:11.959Z,11.67
2022-11-18T04:10:44.002Z,11.70
2022-11-18T04:13:17.268Z,11.66
2022-11-18T04:15:46.471Z,11.49
2022-11-18T04:18:14.404Z,11.70
2022-11-18T04:20:42.228Z,11.77
2022-11-18T04:23:10.134Z,11.77
2022-11-18T04:25:38.152Z,11.60
2022-11-18T04:28:06.927Z,11.69
2022-11-18T04:30:35.205Z,11.59
2022-11-18T04:33:05.216Z,11.34
2022-11-18T04:35:33.340Z,11.47
2022-11-18T04:38:01.199Z,11.37
2022-11-18T04:40:29.147Z,11.19
2022-11-18T04:42:56.931Z,11.39
2022-11-18T04:45:24.724Z,11.27
2022-11-18T04:47:52.529Z,11.22
2022-11-18T04:50:21.928Z,11.18
2022-11-18T04:52:49.765Z,11.14
2022-11-18T04:55:17.760Z,11.12
2022-11-18T04:57:45.588Z,11.20
2022-11-18T05:00:13.917Z,11.35
2022-11-18T05:02:41.787Z,11.18
2022-11-18T05:05:09.688Z,11.18
2022-11-18T05:07:38.916Z,11.22
2022-11-18T05:10:07.456Z,11.21
2022-11-18T05:12:49.312Z,11.45
2022-11-18T05:15:17.678Z,11.24
2022-11-18T05:17:45.518Z,11.24
2022-11-18T05:20:14.094Z,11.34
2022-11-18T05:22:43.545Z,11.37
2022-11-18T05:25:11.387Z,11.45
2022-11-18T05:27:39.201Z,11.44
2022-11-18T05:30:07.904Z,11.45
2022-11-18T05:32:35.664Z,11.40
2022-11-18T05:35:03.522Z,11.64
2022-11-18T05:37:33.667Z,11.46
2022-11-18T05:40:02.904Z,11.61
2022-11-18T05:42:48.507Z,11.74
2022-11-18T05:45:19.328Z,11.67
2022-11-18T05:48:04.398Z,11.36
2022-11-18T05:50:33.591Z,11.50
2022-11-18T05:53:01.712Z,11.54
2022-11-18T05:55:36.477Z,11.27
2022-11-18T05:58:04.304Z,11.22
2022-11-18T06:00:33.515Z,11.18
2022-11-18T06:03:01.878Z,11.36
2022-11-18T06:05:32.647Z,11.13
2022-11-18T06:08:00.502Z,11.15
2022-11-18T06:10:33.377Z,11.21
2022-11-18T06:13:04.150Z,10.98
2022-11-18T06:15:36.438Z,10.98
2022-11-18T06:18:07.627Z,10.84
2022-11-18T06:20:38.074Z,11.09
2022-11-18T06:23:06.079Z,11.12
2022-11-18T06:25:38.004Z,11.07
2022-11-18T06:28:06.164Z,11.01
2022-11-18T06:30:33.932Z,11.00
2022-11-18T06:33:02.119Z,11.09
2022-11-18T06:35:29.937Z,11.13
2022-11-18T06:37:57.808Z,11.09
2022-11-18T06:40:27.366Z,11.31
2022-11-18T06:43:17.196Z,11.30
2022-11-18T06:46:09.060Z,11.55
2022-11-18T06:48:37.781Z,11.44
2022-11-18T06:51:06.096Z,11.28
2022-11-18T06:53:37.546Z,11.39
2022-11-18T06:56:05.978Z,11.19
2022-11-18T06:58:36.755Z,11.34
2022-11-18T07:01:13.615Z,11.44
2022-11-18T07:03:42.350Z,11.31
2022-11-18T07:06:11.736Z,11.46
2022-11-18T07:11:38.337Z,11.29
2022-11-18T07:14:08.189Z,10.98
2022-11-18T07:16:37.656Z,11.06
2022-11-18T07:19:10.717Z,11.09
2022-11-18T07:21:39.529Z,11.12
2022-11-18T07:24:09.251Z,11.50
2022-11-18T07:26:39.682Z,11.16
2022-11-18T07:29:09.977Z,11.26
2022-11-18T07:31:39.762Z,11.11
2022-11-18T07:34:08.600Z,11.50
2022-11-18T07:36:36.851Z,11.19
2022-11-18T07:39:09.160Z,11.21
2022-11-18T07:41:37.539Z,11.27
2022-11-18T07:44:07.511Z,11.27
2022-11-18T07:46:38.643Z,11.12
2022-11-18T07:49:09.971Z,11.43
2022-11-18T07:51:40.562Z,11.44
2022-11-18T07:54:10.447Z,11.22
2022-11-18T07:56:41.783Z,11.16
2022-11-18T07:59:13.096Z,11.60
2022-11-18T08:01:42.937Z,11.45
2022-11-18T08:04:14.005Z,11.14
2022-11-18T08:06:42.720Z,11.00
2022-11-18T08:09:11.135Z,11.32
2022-11-18T08:11:40.984Z,11.59
2022-11-18T08:14:10.039Z,11.32
2022-11-18T08:16:38.805Z,11.22
2022-11-18T08:19:08.289Z,11.46
2022-11-18T08:21:36.544Z,11.67
2022-11-18T08:24:04.693Z,11.77
2022-11-18T08:26:33.365Z,11.42
2022-11-18T08:29:01.861Z,11.07
2022-11-18T08:31:31.590Z,11.37
2022-11-18T08:34:00.916Z,11.52
2022-11-18T08:36:31.419Z,11.70
2022-11-18T08:39:00.402Z,11.54
2022-11-18T08:41:32.358Z,11.60
2022-11-18T08:44:00.783Z,11.77
2022-11-18T08:46:28.689Z,12.10
2022-11-18T08:48:56.790Z,11.77
2022-11-18T08:51:25.269Z,11.83
2022-11-18T08:53:54.564Z,11.86
2022-11-18T08:56:24.086Z,11.67
2022-11-18T08:58:52.452Z,11.66
2022-11-18T09:01:20.472Z,11.90
2022-11-18T09:03:48.957Z,11.75
2022-11-18T09:06:19.482Z,11.74
2022-11-18T09:08:47.940Z,11.79
2022-11-18T09:11:19.305Z,11.69
2022-11-18T09:14:26.051Z,11.59
2022-11-18T09:16:36.281Z,11.83
2022-11-18T09:19:24.747Z,11.65
2022-11-18T09:21:52.842Z,11.62
2022-11-18T09:24:21.324Z,11.69
2022-11-18T09:26:50.966Z,11.80
2022-11-18T09:29:18.878Z,11.97
2022-11-18T09:31:46.985Z,11.52
2022-11-18T09:34:14.810Z,11.45
2022-11-18T09:36:42.806Z,11.69
2022-11-18T09:39:10.749Z,11.40
2022-11-18T09:41:46.233Z,11.51
2022-11-18T09:44:39.758Z,11.46
2022-11-18T09:47:22.625Z,11.45
2022-11-18T09:49:53.646Z,11.70
2022-11-18T09:52:30.164Z,11.35
2022-11-18T09:55:01.387Z,11.36
2022-11-18T09:57:39.719Z,11.39
2022-11-18T10:00:16.527Z,11.50
2022-11-18T10:02:57.072Z,11.41
2022-11-18T10:05:27.448Z,11.73
2022-11-18T10:08:15.503Z,11.70
2022-11-18T10:10:56.648Z,11.52
2022-11-18T10:13:39.825Z,11.39
2022-11-18T10:16:23.936Z,11.73
2022-11-18T10:19:00.940Z,11.86
2022-11-18T10:21:43.440Z,11.50
2022-11-18T10:24:16.966Z,11.63
2022-11-18T10:26:45.266Z,11.67
2022-11-18T10:29:13.512Z,11.89
2022-11-18T10:32:03.789Z,11.97
2022-11-18T10:34:33.178Z,12.25
2022-11-18T10:37:03.445Z,12.08
2022-11-18T10:39:31.612Z,11.91
2022-11-18T10:42:03.977Z,11.90
2022-11-18T10:44:34.768Z,12.41
2022-11-18T10:47:34.713Z,12.20
2022-11-18T10:50:24.169Z,12.07
2022-11-18T10:52:54.288Z,12.20
2022-11-18T10:55:24.886Z,12.44
2022-11-18T10:57:57.087Z,12.13
2022-11-18T11:00:50.357Z,12.41
2022-11-18T11:03:41.943Z,12.25
2022-11-18T11:06:43.178Z,11.93
2022-11-18T11:09:24.400Z,12.24
2022-11-18T11:11:58.975Z,12.29
2022-11-18T11:14:29.905Z,12.19
2022-11-18T11:17:03.583Z,12.23
2022-11-18T11:19:40.791Z,12.98
2022-11-18T11:22:13.388Z,12.82
2022-11-18T11:24:41.938Z,12.48
2022-11-18T11:30:22.007Z,12.60
2022-11-18T11:33:23.845Z,12.41
2022-11-18T11:36:04.871Z,12.99
2022-11-18T11:38:43.429Z,12.68
2022-11-18T11:41:21.236Z,12.72
2022-11-18T11:44:07.685Z,12.85
2022-11-18T11:46:44.096Z,13.04
2022-11-18T11:49:19.070Z,12.82
2022-11-18T11:51:55.120Z,12.85
2022-11-18T11:54:39.144Z,13.02
2022-11-18T11:57:16.867Z,13.10
2022-11-18T11:59:54.319Z,12.91
2022-11-18T12:02:48.883Z,13.55
2022-11-18T12:05:23.531Z,13.12
2022-11-18T12:07:56.642Z,13.36
2022-11-18T12:10:36.924Z,12.76
2022-11-18T12:13:21.676Z,12.64
2022-11-18T12:16:00.097Z,13.05
2022-11-18T12:18:34.764Z,13.28
2022-11-18T12:21:02.592Z,12.97
2022-11-18T12:23:35.275Z,12.99
2022-11-18T12:26:06.073Z,13.18
2022-11-18T12:28:39.921Z,13.86
2022-11-18T12:31:36.256Z,13.35
2022-11-18T12:34:20.955Z,13.73
2022-11-18T12:36:48.894Z,13.74
2022-11-18T12:39:53.408Z,13.55
2022-11-18T12:43:00.984Z,13.49
2022-11-18T12:46:01.736Z,13.94
2022-11-18T12:48:35.847Z,13.41
2022-11-18T12:51:30.124Z,13.67
2022-11-18T12:53:58.612Z,13.90
2022-11-18T12:56:28.980Z,13.94
2022-11-18T12:59:00.265Z,14.31
2022-11-18T13:01:30.545Z,14.14
2022-11-18T13:04:08.493Z,13.44
2022-11-18T13:06:38.998Z,13.30
2022-11-18T13:09:15.404Z,13.53
2022-11-18T13:11:48.479Z,13.18
2022-11-18T13:14:41.140Z,12.84
2022-11-18T13:17:45.552Z,13.06
2022-11-18T13:20:27.341Z,12.92
2022-11-18T13:23:15.105Z,12.72
2022-11-18T13:25:45.126Z,12.75
2022-11-18T13:28:24.081Z,12.76
2022-11-18T13:30:58.068Z,12.95
2022-11-18T13:33:26.699Z,12.84
2022-11-18T13:35:54.585Z,13.17
2022-11-18T13:38:28.463Z,13.25
2022-11-18T13:41:08.102Z,13.28
2022-11-18T13:43:36.239Z,13.47
2022-11-18T13:46:10.484Z,13.66
2022-11-18T13:48:46.335Z,13.49
2022-11-18T13:51:14.804Z,13.29
2022-11-18T13:53:44.480Z,13.56
2022-11-18T13:56:20.265Z,13.48
2022-11-18T13:59:16.473Z,13.83
2022-11-18T14:01:47.062Z,13.99
2022-11-18T14:04:21.685Z,13.82
2022-11-18T14:06:49.998Z,14.09
2022-11-18T14:09:25.582Z,13.84
2022-11-18T14:12:01.797Z,13.92
2022-11-18T14:14:32.022Z,14.02
2022-11-18T14:17:17.518Z,14.00
2022-11-18T14:19:46.077Z,13.80
2022-11-18T14:22:17.139Z,13.82
2022-11-18T14:24:45.461Z,13.37
2022-11-18T14:27:48.341Z,13.28
2022-11-18T14:30:36.889Z,13.44
2022-11-18T14:33:22.458Z,13.51
2022-11-18T14:35:53.521Z,13.64
2022-11-18T14:41:16.090Z,13.57
2022-11-18T14:43:46.048Z,13.35
2022-11-18T14:46:19.114Z,13.09
2022-11-18T14:48:48.922Z,13.12
2022-11-18T14:51:18.167Z,13.10
2022-11-18T14:54:01.901Z,12.95
2022-11-18T14:56:36.376Z,12.65
2022-11-18T14:59:04.907Z,12.46
2022-11-18T15:01:33.048Z,12.27
2022-11-18T15:04:02.515Z,12.11
2022-11-18T15:06:30.349Z,12.12
2022-11-18T15:08:58.157Z,11.97
2022-11-18T15:11:25.987Z,11.90
2022-11-18T15:13:54.177Z,11.85
2022-11-18T15:16:24.377Z,11.83
2022-11-18T15:18:54.057Z,11.85
2022-11-18T15:21:24.503Z,11.79
2022-11-18T15:23:52.930Z,11.74
2022-11-18T15:26:22.843Z,11.59
2022-11-18T15:28:54.982Z,11.65
2022-11-18T15:31:23.770Z,11.90
2022-11-18T15:33:51.800Z,11.81
2022-11-18T15:36:21.575Z,11.66
2022-11-18T15:38:52.245Z,11.46
2022-11-18T15:41:23.476Z,11.26
2022-11-18T15:43:52.033Z,11.18
2022-11-18T15:46:22.521Z,11.00
2022-11-18T15:48:53.730Z,10.87
2022-11-18T15:51:23.715Z,10.81
2022-11-18T15:53:54.381Z,10.82
2022-11-18T15:56:31.253Z,10.84
2022-11-18T15:59:01.221Z,10.75
2022-11-18T16:01:31.789Z,10.65
2022-11-18T16:04:00.484Z,10.53
2022-11-18T16:06:28.884Z,10.44
2022-11-18T16:09:00.447Z,10.41
2022-11-18T16:11:47.561Z,10.42
2022-11-18T16:14:18.035Z,10.54
2022-11-18T16:16:48.048Z,10.41
2022-11-18T16:19:18.779Z,10.46
2022-11-18T16:21:48.860Z,10.42
2022-11-18T16:24:23.139Z,10.42
2022-11-18T16:26:52.619Z,10.17
2022-11-18T16:29:21.966Z,10.07
2022-11-18T16:31:52.896Z,9.89
2022-11-18T16:34:23.113Z,9.85
2022-11-18T16:36:53.320Z,9.82
2022-11-18T16:39:25.147Z,9.90
2022-11-18T16:41:55.108Z,9.89
2022-11-18T16:44:23.504Z,9.87
2022-11-18T16:46:53.264Z,9.79
2022-11-18T16:49:26.942Z,9.86
2022-11-18T16:51:56.992Z,9.86
2022-11-18T16:54:29.350Z,9.73
2022-11-18T16:56:59.272Z,9.69
2022-11-18T16:59:29.121Z,9.62
2022-11-18T17:01:59.088Z,9.54
2022-11-18T17:04:28.976Z,9.61
2022-11-18T17:07:00.979Z,9.56
2022-11-18T17:09:32.002Z,9.54
2022-11-18T17:12:04.151Z,9.63
2022-11-18T17:14:32.403Z,9.61
2022-11-18T17:17:00.447Z,9.62
2022-11-18T17:19:28.443Z,9.73
2022-11-18T17:21:56.735Z,9.80
2022-11-18T17:24:25.198Z,9.87
2022-11-18T17:26:55.458Z,10.03
2022-11-18T17:29:23.513Z,10.15
2022-11-18T17:31:51.510Z,10.19
2022-11-18T17:34:19.987Z,10.16
2022-11-18T17:36:48.202Z,10.20
2022-11-18T17:39:17.484Z,10.34
2022-11-18T17:41:59.651Z,10.32
2022-11-18T17:44:29.747Z,10.46
2022-11-18T17:46:57.879Z,10.45
2022-11-18T17:49:25.881Z,10.57
2022-11-18T17:51:55.286Z,10.66
2022-11-18T17:54:23.569Z,10.65
2022-11-18T17:56:52.926Z,10.76
2022-11-18T17:59:23.018Z,10.69
2022-11-18T18:01:58.663Z,10.72
2022-11-18T18:04:27.731Z,10.68
2022-11-18T18:06:55.868Z,10.68
2022-11-18T18:09:29.984Z,10.54
2022-11-18T18:12:00.003Z,10.63
2022-11-18T18:14:27.002Z,10.70
2022-11-18T18:16:56.361Z,10.63
2022-11-18T18:19:24.781Z,10.70
2022-11-18T18:21:58.932Z,10.66
2022-11-18T18:24:27.228Z,10.59
2022-11-18T18:26:55.354Z,10.56
2022-11-18T18:29:25.209Z,10.53
2022-11-18T18:31:53.364Z,10.57
2022-11-18T18:34:22.769Z,10.56
2022-11-18T18:36:50.965Z,10.53
2022-11-18T18:39:19.003Z,10.49
2022-11-18T18:41:49.133Z,10.33
2022-11-18T18:44:18.899Z,10.27
2022-11-18T18:46:46.125Z,10.37
2022-11-18T18:49:15.681Z,10.29
2022-11-18T18:51:48.904Z,10.36
2022-11-18T18:54:20.322Z,10.16
2022-11-18T18:56:48.483Z,10.38
2022-11-18T18:59:16.485Z,10.45
2022-11-18T19:01:44.714Z,10.35
2022-11-18T19:04:14.278Z,10.34
2022-11-18T19:07:01.107Z,10.23
2022-11-18T19:09:30.642Z,10.31
2022-11-18T19:12:15.989Z,10.28
2022-11-18T19:14:43.950Z,10.40
2022-11-18T19:17:13.001Z,10.54
2022-11-18T19:19:59.574Z,10.49
2022-11-18T19:22:30.155Z,10.46
2022-11-18T19:24:59.917Z,10.12
2022-11-18T19:27:28.927Z,10.22
2022-11-18T19:29:57.019Z,10.15
2022-11-18T19:32:25.118Z,10.26
2022-11-18T19:34:53.220Z,10.29
2022-11-18T19:37:21.231Z,10.41
2022-11-18T19:39:49.160Z,10.52
2022-11-18T19:42:18.657Z,10.59
2022-11-18T19:44:46.598Z,10.31
2022-11-18T19:47:14.571Z,10.26
2022-11-18T19:49:42.640Z,10.15
2022-11-18T19:52:10.632Z,10.29
2022-11-18T19:54:38.544Z,10.48
2022-11-18T19:57:06.506Z,10.32
2022-11-18T19:59:36.031Z,10.24
2022-11-18T20:02:04.200Z,10.23
2022-11-18T20:04:32.104Z,10.46
2022-11-18T20:07:01.092Z,10.27
2022-11-18T20:09:29.115Z,10.34
2022-11-18T20:11:57.191Z,10.26
2022-11-18T20:14:25.423Z,10.40
2022-11-18T20:16:54.894Z,10.42
2022-11-18T20:19:23.438Z,10.37
2022-11-18T20:21:53.023Z,10.33
2022-11-18T20:24:21.508Z,10.30
2022-11-18T20:26:50.336Z,10.45
2022-11-18T20:29:18.850Z,10.23
2022-11-18T20:31:47.123Z,10.29
2022-11-18T20:34:16.329Z,10.45
2022-11-18T20:36:44.582Z,10.07
2022-11-18T20:39:15.316Z,10.22
2022-11-18T20:42:04.261Z,10.22
2022-11-18T20:44:32.248Z,10.23
2022-11-18T20:47:01.371Z,10.05
2022-11-18T20:49:31.881Z,10.15
2022-11-18T20:51:59.695Z,10.09
2022-11-18T20:54:28.333Z,10.27
2022-11-18T20:56:56.465Z,9.99
2022-11-18T20:59:24.679Z,10.07
2022-11-18T21:01:53.196Z,10.20
2022-11-18T21:04:21.122Z,10.09
2022-11-18T21:06:52.626Z,10.10
2022-11-18T21:09:21.434Z,10.12
2022-11-18T21:11:50.493Z,10.23
2022-11-18T21:14:23.332Z,10.29
2022-11-18T21:16:53.257Z,10.28
2022-11-18T21:19:21.600Z,10.06
2022-11-18T21:21:52.582Z,10.23
2022-11-18T21:24:23.436Z,10.02
2022-11-18T21:26:54.696Z,10.00
2022-11-18T21:29:23.762Z,10.03
2022-11-18T21:31:52.471Z,9.96
2022-11-18T21:34:21.604Z,10.17
2022-11-18T21:36:55.144Z,10.18
2022-11-18T21:39:24.496Z,10.09
2022-11-18T21:41:56.798Z,10.39
2022-11-18T21:44:28.345Z,10.55
2022-11-18T21:46:57.864Z,10.37
2022-11-18T21:49:26.080Z,10.50
2022-11-18T21:51:56.914Z,10.61
2022-11-18T21:54:25.153Z,10.56
2022-11-18T21:56:54.155Z,10.45
2022-11-18T21:59:23.676Z,10.59
2022-11-18T22:01:52.266Z,10.44
2022-11-18T22:04:34.476Z,10.44
2022-11-18T22:07:05.256Z,10.43
2022-11-18T22:09:36.688Z,10.36
2022-11-18T22:12:07.839Z,10.23
2022-11-18T22:14:36.363Z,10.30
2022-11-18T22:17:05.806Z,10.26
2022-11-18T22:19:33.740Z,10.26
2022-11-18T22:22:03.440Z,10.11
2022-11-18T22:24:31.823Z,10.03
2022-11-18T22:26:59.834Z,10.03
2022-11-18T22:29:28.177Z,10.11
2022-11-18T22:31:57.292Z,10.15
2022-11-18T22:34:25.396Z,9.98
2022-11-18T22:36:53.300Z,10.15
2022-11-18T22:39:22.912Z,9.96
2022-11-18T22:42:08.297Z,9.88
2022-11-18T22:44:36.312Z,9.63
2022-11-18T22:47:04.729Z,9.62
2022-11-18T22:49:32.875Z,9.72
2022-11-18T22:52:02.009Z,9.78
2022-11-18T22:54:38.935Z,9.60
2022-11-18T22:57:07.903Z,9.29
2022-11-18T22:59:36.407Z,9.26
2022-11-18T23:02:05.042Z,9.30
2022-11-18T23:04:33.015Z,9.02
2022-11-18T23:07:00.840Z,8.71
2022-11-18T23:09:28.853Z,8.57
2022-11-18T23:12:15.367Z,8.50
2022-11-18T23:14:43.233Z,8.51
2022-11-18T23:17:11.182Z,8.41
2022-11-18T23:19:41.954Z,8.38
2022-11-18T23:22:09.902Z,8.32
2022-11-18T23:24:37.884Z,8.34
2022-11-18T23:27:07.288Z,8.32
2022-11-18T23:29:35.331Z,8.27
2022-11-18T23:32:03.170Z,8.17
2022-11-18T23:34:31.107Z,8.20
2022-11-18T23:36:58.947Z,8.46
2022-11-18T23:39:27.515Z,8.21
2022-11-18T23:41:55.350Z,8.10
2022-11-18T23:44:44.524Z,8.02
2022-11-18T23:47:12.415Z,8.10
2022-11-18T23:49:40.161Z,7.79
2022-11-18T23:52:07.987Z,7.85
2022-11-18T23:54:35.739Z,7.83
2022-11-18T23:57:05.592Z,7.86
2022-11-18T23:59:35.036Z,7.94
